createdAt,value
2022-08-11T00:01:25.718Z,3.53
2022-08-11T00:04:13.318Z,3.05
2022-08-11T00:07:03.766Z,2.90
2022-08-11T00:09:48.979Z,2.95
2022-08-11T00:12:34.820Z,3.00
2022-08-11T00:15:21.023Z,3.58
2022-08-11T00:18:07.178Z,2.90
2022-08-11T00:20:58.789Z,2.72
2022-08-11T00:24:03.544Z,3.13
2022-08-11T00:26:53.842Z,2.83
2022-08-11T00:29:51.687Z,2.40
2022-08-11T00:32:40.849Z,2.92
2022-08-11T00:35:54.982Z,3.45
2022-08-11T00:38:39.934Z,2.92
2022-08-11T00:41:39.437Z,3.60
2022-08-11T00:44:41.819Z,3.63
2022-08-11T00:47:41.312Z,3.47
2022-08-11T00:50:37.531Z,3.15
2022-08-11T00:53:38.878Z,3.75
2022-08-11T00:56:42.577Z,3.40
2022-08-11T00:59:59.110Z,3.50
2022-08-11T01:03:18.144Z,3.30
2022-08-11T01:06:29.133Z,3.30
2022-08-11T01:09:38.803Z,3.15
2022-08-11T01:12:58.243Z,3.08
2022-08-11T01:16:12.463Z,3.20
2022-08-11T01:19:29.748Z,3.45
2022-08-11T01:22:56.262Z,3.55
2022-08-11T01:26:11.598Z,4.05
2022-08-11T01:29:33.305Z,4.05
2022-08-11T01:32:37.972Z,3.87
2022-08-11T01:35:52.988Z,3.70
2022-08-11T01:38:59.194Z,3.97
2022-08-11T01:42:33.617Z,3.60
2022-08-11T01:45:28.011Z,3.55
2022-08-11T01:48:42.192Z,3.65
2022-08-11T01:51:53.766Z,3.90
2022-08-11T01:54:56.269Z,3.42
2022-08-11T01:58:06.309Z,3.80
2022-08-11T02:01:05.679Z,4.20
2022-08-11T02:04:06.192Z,3.88
2022-08-11T02:07:04.569Z,4.95
2022-08-11T02:10:54.226Z,4.50
2022-08-11T02:13:58.292Z,4.80
2022-08-11T02:17:33.224Z,4.25
2022-08-11T02:20:53.739Z,4.35
2022-08-11T02:24:07.144Z,4.60
2022-08-11T02:27:19.653Z,4.40
2022-08-11T02:30:10.105Z,5.53
2022-08-11T02:33:24.293Z,5.00
2022-08-11T02:36:19.634Z,4.63
2022-08-11T02:39:15.565Z,4.07
2022-08-11T02:42:35.094Z,4.25
2022-08-11T02:45:55.261Z,4.60
2022-08-11T02:49:24.069Z,4.20
2022-08-11T02:52:38.235Z,4.78
2022-08-11T02:55:48.960Z,4.80
2022-08-11T02:59:24.773Z,4.97
2022-08-11T03:02:40.673Z,5.40
2022-08-11T03:05:31.467Z,5.03
2022-08-11T03:08:51.804Z,5.25
2022-08-11T03:12:08.016Z,4.70
2022-08-11T03:15:28.774Z,5.03
2022-08-11T03:18:26.879Z,4.47
2022-08-11T03:21:25.230Z,4.20
2022-08-11T03:24:40.091Z,4.30
2022-08-11T03:27:48.513Z,3.83
2022-08-11T03:30:52.888Z,3.42
2022-08-11T03:34:06.998Z,4.05
2022-08-11T03:37:34.396Z,4.20
2022-08-11T03:40:52.506Z,3.70
2022-08-11T03:44:00.448Z,3.58
2022-08-11T03:47:10.992Z,4.63
2022-08-11T03:50:28.960Z,4.40
2022-08-11T03:53:46.834Z,4.90
2022-08-11T03:57:08.995Z,4.70
2022-08-11T04:00:23.864Z,4.43
2022-08-11T04:03:31.459Z,4.30
2022-08-11T04:06:54.877Z,5.22
2022-08-11T04:10:07.322Z,5.38
2022-08-11T04:16:24.129Z,4.80
2022-08-11T04:19:34.115Z,5.30
2022-08-11T04:22:34.859Z,5.22
2022-08-11T04:25:57.974Z,4.80
2022-08-11T04:29:09.724Z,5.00
2022-08-11T04:32:04.839Z,4.55
2022-08-11T04:35:22.943Z,4.10
2022-08-11T04:38:44.966Z,5.53
2022-08-11T04:42:31.079Z,5.25
2022-08-11T04:45:41.157Z,5.47
2022-08-11T04:49:09.678Z,5.43
2022-08-11T04:52:35.925Z,5.30
2022-08-11T04:56:20.750Z,4.53
2022-08-11T05:00:03.610Z,4.82
2022-08-11T05:03:14.750Z,4.68
2022-08-11T05:06:45.433Z,4.22
2022-08-11T05:10:08.145Z,4.10
2022-08-11T05:13:21.278Z,4.10
2022-08-11T05:16:30.422Z,4.15
2022-08-11T05:19:37.678Z,3.78
2022-08-11T05:22:48.277Z,3.50
2022-08-11T05:26:43.464Z,3.35
2022-08-11T05:29:21.663Z,3.35
2022-08-11T05:32:31.280Z,3.65
2022-08-11T05:36:00.413Z,3.30
2022-08-11T05:38:54.483Z,3.38
2022-08-11T05:41:59.911Z,3.58
2022-08-11T05:45:05.850Z,3.60
2022-08-11T05:48:21.967Z,3.13
2022-08-11T05:51:30.233Z,2.72
2022-08-11T05:54:35.421Z,3.20
2022-08-11T05:57:39.708Z,3.10
2022-08-11T06:00:45.681Z,3.22
2022-08-11T06:03:33.608Z,3.00
2022-08-11T06:06:19.187Z,3.22
2022-08-11T06:09:05.176Z,2.65
2022-08-11T06:11:52.235Z,3.10
2022-08-11T06:14:46.167Z,2.80
2022-08-11T06:17:38.665Z,2.70
2022-08-11T06:20:25.726Z,2.60
2022-08-11T06:23:11.529Z,2.60
2022-08-11T06:25:58.973Z,2.65
2022-08-11T06:28:46.167Z,2.20
2022-08-11T06:31:33.670Z,2.28
2022-08-11T06:34:52.913Z,2.20
2022-08-11T06:38:06.367Z,2.00
2022-08-11T06:41:19.455Z,2.60
2022-08-11T06:44:14.753Z,2.10
2022-08-11T06:47:09.897Z,2.22
2022-08-11T06:50:18.613Z,2.35
2022-08-11T06:53:10.521Z,2.42
2022-08-11T06:56:18.308Z,1.98
2022-08-11T06:59:22.883Z,1.88
2022-08-11T07:02:13.026Z,2.03
2022-08-11T07:05:02.552Z,2.67
2022-08-11T07:08:37.645Z,1.95
2022-08-11T07:12:13.941Z,2.10
2022-08-11T07:15:22.199Z,1.90
2022-08-11T07:18:39.838Z,2.03
2022-08-11T07:22:02.566Z,1.85
2022-08-11T07:25:29.568Z,1.90
2022-08-11T07:28:46.506Z,1.98
2022-08-11T07:31:37.089Z,1.73
2022-08-11T07:34:34.115Z,1.90
2022-08-11T07:37:20.653Z,2.10
2022-08-11T07:40:07.309Z,1.92
2022-08-11T07:42:55.383Z,2.08
2022-08-11T07:46:04.762Z,1.98
2022-08-11T07:49:08.778Z,1.70
2022-08-11T07:52:14.496Z,1.60
2022-08-11T07:55:15.487Z,2.10
2022-08-11T07:58:20.688Z,2.35
2022-08-11T08:01:24.805Z,2.65
2022-08-11T08:04:32.171Z,2.20
2022-08-11T08:07:39.782Z,1.70
2022-08-11T08:10:43.927Z,2.00
2022-08-11T08:13:48.175Z,1.50
2022-08-11T08:16:56.420Z,1.73
2022-08-11T08:19:48.365Z,1.90
2022-08-11T08:22:38.929Z,1.88
2022-08-11T08:25:26.449Z,1.90
2022-08-11T08:28:17.543Z,2.17
2022-08-11T08:31:03.321Z,1.80
2022-08-11T08:33:48.816Z,1.80
2022-08-11T08:36:34.163Z,1.67
2022-08-11T08:39:21.742Z,1.55
2022-08-11T08:42:11.704Z,1.63
2022-08-11T08:45:11.560Z,1.70
2022-08-11T08:47:59.686Z,1.63
2022-08-11T08:51:11.271Z,1.75
2022-08-11T08:54:09.338Z,1.92
2022-08-11T08:56:56.795Z,1.95
2022-08-11T08:59:48.813Z,2.30
2022-08-11T09:02:36.352Z,1.92
2022-08-11T09:05:22.317Z,1.73
2022-08-11T09:08:09.221Z,1.90
2022-08-11T09:11:14.912Z,2.03
2022-08-11T09:14:06.457Z,2.05
2022-08-11T09:16:53.516Z,1.90
2022-08-11T09:19:38.825Z,2.30
2022-08-11T09:22:43.841Z,2.28
2022-08-11T09:25:50.784Z,2.13
2022-08-11T09:28:36.813Z,1.60
2022-08-11T09:31:22.950Z,2.00
2022-08-11T09:34:13.716Z,2.20
2022-08-11T09:37:28.306Z,1.75
2022-08-11T09:40:32.582Z,1.98
2022-08-11T09:43:37.934Z,2.40
2022-08-11T09:46:27.687Z,1.90
2022-08-11T09:49:13.307Z,2.00
2022-08-11T09:52:05.571Z,2.40
2022-08-11T09:54:52.307Z,2.63
2022-08-11T09:57:58.941Z,1.85
2022-08-11T10:00:48.145Z,2.20
2022-08-11T10:03:40.248Z,2.67
2022-08-11T10:06:47.499Z,1.73
2022-08-11T10:09:46.799Z,1.90
2022-08-11T10:12:36.107Z,1.80
2022-08-11T10:15:39.716Z,1.90
2022-08-11T10:18:53.618Z,2.13
2022-08-11T10:21:42.365Z,1.83
2022-08-11T10:24:46.384Z,2.15
2022-08-11T10:28:17.819Z,2.00
2022-08-11T10:30:57.049Z,1.90
2022-08-11T10:34:03.126Z,1.73
2022-08-11T10:36:48.509Z,1.88
2022-08-11T10:39:35.527Z,1.80
2022-08-11T10:42:57.298Z,2.10
2022-08-11T10:46:04.669Z,2.20
2022-08-11T10:48:50.309Z,1.95
2022-08-11T10:51:54.462Z,1.95
2022-08-11T10:55:03.751Z,1.83
2022-08-11T10:58:07.957Z,1.48
2022-08-11T11:00:57.172Z,1.63
2022-08-11T11:03:43.947Z,1.98
2022-08-11T11:06:45.753Z,1.83
2022-08-11T11:09:34.654Z,1.80
2022-08-11T11:12:43.697Z,1.95
2022-08-11T11:15:50.538Z,1.88
2022-08-11T11:18:37.234Z,1.77
2022-08-11T11:21:24.799Z,1.90
2022-08-11T11:24:41.148Z,2.30
2022-08-11T11:27:46.651Z,1.83
2022-08-11T11:30:56.649Z,2.40
2022-08-11T11:34:12.948Z,1.65
2022-08-11T11:37:00.635Z,2.00
2022-08-11T11:39:46.662Z,1.90
2022-08-11T11:42:32.262Z,2.10
2022-08-11T11:45:23.246Z,1.95
2022-08-11T11:48:11.931Z,2.00
2022-08-11T11:50:58.621Z,1.80
2022-08-11T11:53:45.530Z,1.60
2022-08-11T11:56:31.511Z,1.88
2022-08-11T11:59:44.669Z,1.60
2022-08-11T12:02:30.350Z,1.75
2022-08-11T12:05:16.058Z,1.60
2022-08-11T12:08:17.908Z,1.80
2022-08-11T12:11:24.619Z,1.67
2022-08-11T12:14:11.104Z,1.67
2022-08-11T12:16:57.765Z,1.50
2022-08-11T12:19:46.074Z,1.60
2022-08-11T12:22:54.293Z,1.52
2022-08-11T12:26:23.389Z,1.50
2022-08-11T12:29:06.580Z,1.20
2022-08-11T12:31:54.135Z,1.60
2022-08-11T12:34:41.318Z,1.63
2022-08-11T12:38:05.980Z,1.48
2022-08-11T12:41:15.848Z,1.50
2022-08-11T12:44:25.159Z,1.70
2022-08-11T12:47:12.837Z,1.25
2022-08-11T12:50:23.187Z,1.60
2022-08-11T12:53:12.062Z,1.30
2022-08-11T12:56:41.918Z,1.40
2022-08-11T12:59:46.418Z,1.15
2022-08-11T13:02:50.980Z,1.38
2022-08-11T13:05:44.355Z,1.20
2022-08-11T13:08:33.938Z,1.20
2022-08-11T13:11:57.060Z,1.30
2022-08-11T13:14:43.602Z,1.30
2022-08-11T13:17:44.189Z,1.38
2022-08-11T13:20:30.655Z,1.25
2022-08-11T13:23:16.658Z,1.30
2022-08-11T13:26:02.211Z,1.30
2022-08-11T13:28:47.880Z,1.45
2022-08-11T13:31:33.707Z,1.20
2022-08-11T13:34:20.852Z,1.05
2022-08-11T13:37:06.470Z,1.50
2022-08-11T13:39:52.056Z,1.20
2022-08-11T13:42:39.608Z,1.15
2022-08-11T13:45:26.407Z,1.20
2022-08-11T13:48:12.565Z,1.50
2022-08-11T13:51:16.974Z,1.30
2022-08-11T13:54:18.792Z,1.15
2022-08-11T14:00:09.735Z,1.30
2022-08-11T14:02:59.758Z,1.30
2022-08-11T14:05:48.682Z,1.30
2022-08-11T14:08:40.900Z,1.10
2022-08-11T14:12:23.862Z,1.27
2022-08-11T14:15:07.587Z,1.10
2022-08-11T14:17:58.040Z,1.40
2022-08-11T14:21:03.567Z,1.15
2022-08-11T14:23:59.288Z,1.40
2022-08-11T14:26:49.195Z,1.20
2022-08-11T14:29:45.181Z,1.60
2022-08-11T14:32:34.883Z,1.20
2022-08-11T14:35:39.069Z,1.30
2022-08-11T14:38:31.013Z,1.40
2022-08-11T14:41:37.451Z,1.45
2022-08-11T14:45:05.313Z,1.35
2022-08-11T14:47:53.277Z,1.42
2022-08-11T14:50:39.666Z,1.20
2022-08-11T14:53:25.512Z,1.52
2022-08-11T14:56:29.686Z,1.50
2022-08-11T14:59:14.873Z,1.40
2022-08-11T15:02:21.492Z,1.30
2022-08-11T15:05:07.881Z,1.52
2022-08-11T15:07:55.953Z,1.40
2022-08-11T15:10:41.669Z,1.45
2022-08-11T15:13:27.049Z,1.50
2022-08-11T15:16:31.164Z,1.40
2022-08-11T15:19:21.155Z,1.35
2022-08-11T15:22:28.067Z,1.30
2022-08-11T15:25:14.762Z,1.42
2022-08-11T15:28:19.032Z,1.17
2022-08-11T15:31:49.112Z,1.42
2022-08-11T15:34:53.477Z,1.35
2022-08-11T15:37:42.641Z,1.50
2022-08-11T15:40:49.583Z,1.35
2022-08-11T15:44:04.569Z,1.20
2022-08-11T15:46:55.304Z,1.55
2022-08-11T15:50:10.835Z,1.50
2022-08-11T15:53:02.728Z,1.30
2022-08-11T15:55:49.073Z,1.20
2022-08-11T15:59:10.772Z,1.27
2022-08-11T16:02:31.047Z,1.33
2022-08-11T16:05:46.118Z,1.40
2022-08-11T16:08:29.492Z,1.20
2022-08-11T16:11:21.347Z,1.38
2022-08-11T16:14:28.305Z,1.27
2022-08-11T16:17:17.440Z,1.70
2022-08-11T16:20:05.345Z,1.20
2022-08-11T16:23:01.246Z,1.20
2022-08-11T16:27:06.117Z,1.30
2022-08-11T16:28:58.400Z,1.30
2022-08-11T16:32:04.664Z,1.50
2022-08-11T16:35:13.650Z,1.33
2022-08-11T16:38:19.439Z,1.38
2022-08-11T16:41:11.605Z,1.38
2022-08-11T16:44:15.697Z,1.30
2022-08-11T16:47:03.366Z,1.20
2022-08-11T16:49:52.712Z,1.60
2022-08-11T16:52:38.901Z,1.50
2022-08-11T16:55:52.512Z,1.30
2022-08-11T16:58:53.205Z,1.30
2022-08-11T17:01:38.948Z,1.65
2022-08-11T17:04:48.824Z,1.58
2022-08-11T17:07:55.859Z,1.60
2022-08-11T17:11:07.174Z,1.35
2022-08-11T17:14:06.841Z,1.60
2022-08-11T17:16:53.029Z,1.55
2022-08-11T17:20:40.288Z,2.40
2022-08-11T17:23:13.247Z,1.50
2022-08-11T17:26:03.381Z,1.67
2022-08-11T17:28:56.270Z,1.60
2022-08-11T17:32:01.109Z,1.50
2022-08-11T17:35:06.830Z,2.50
2022-08-11T17:37:53.692Z,1.45
2022-08-11T17:41:06.712Z,1.40
2022-08-11T17:44:13.659Z,1.67
2022-08-11T17:47:17.777Z,1.80
2022-08-11T17:53:22.426Z,1.55
2022-08-11T17:56:27.013Z,2.13
2022-08-11T17:59:32.632Z,1.70
2022-08-11T18:02:40.725Z,1.92
2022-08-11T18:05:34.117Z,1.58
2022-08-11T18:08:39.704Z,1.80
2022-08-11T18:12:10.141Z,1.73
2022-08-11T18:15:14.258Z,1.75
2022-08-11T18:18:18.313Z,1.80
2022-08-11T18:21:25.424Z,1.92
2022-08-11T18:24:33.282Z,1.60
2022-08-11T18:27:38.880Z,1.52
2022-08-11T18:30:44.400Z,1.70
2022-08-11T18:34:06.847Z,1.70
2022-08-11T18:37:24.944Z,1.40
2022-08-11T18:40:37.703Z,1.52
2022-08-11T18:43:44.370Z,1.27
2022-08-11T18:46:54.117Z,1.88
2022-08-11T18:50:05.157Z,1.42
2022-08-11T18:53:12.355Z,1.45
2022-08-11T18:56:18.817Z,1.40
2022-08-11T18:59:25.281Z,1.55
2022-08-11T19:02:31.183Z,1.63
2022-08-11T19:06:05.946Z,1.48
2022-08-11T19:09:10.342Z,1.52
2022-08-11T19:12:16.866Z,1.60
2022-08-11T19:15:22.859Z,1.50
2022-08-11T19:18:30.657Z,1.45
2022-08-11T19:21:36.712Z,1.63
2022-08-11T19:24:43.631Z,1.60
2022-08-11T19:27:48.434Z,1.77
2022-08-11T19:30:53.626Z,1.85
2022-08-11T19:34:02.890Z,1.70
2022-08-11T19:37:15.308Z,1.75
2022-08-11T19:40:25.776Z,1.80
2022-08-11T19:43:31.163Z,1.83
2022-08-11T19:46:40.751Z,1.70
2022-08-11T19:49:45.791Z,1.75
2022-08-11T19:52:50.645Z,1.60
2022-08-11T19:55:56.837Z,1.50
2022-08-11T19:59:02.259Z,1.50
2022-08-11T20:02:13.140Z,1.63
2022-08-11T20:08:25.445Z,1.48
2022-08-11T20:11:32.742Z,1.33
2022-08-11T20:14:38.966Z,1.88
2022-08-11T20:17:46.092Z,1.52
2022-08-11T20:20:50.908Z,1.50
2022-08-11T20:23:58.153Z,1.85
2022-08-11T20:27:02.844Z,1.73
2022-08-11T20:30:07.892Z,1.80
2022-08-11T20:33:12.525Z,1.55
2022-08-11T20:36:16.898Z,1.70
2022-08-11T20:39:22.664Z,1.80
2022-08-11T20:42:30.681Z,1.50
2022-08-11T20:45:36.242Z,1.40
2022-08-11T20:48:59.083Z,1.58
2022-08-11T20:52:06.150Z,1.70
2022-08-11T20:55:19.096Z,1.52
2022-08-11T20:58:48.029Z,1.45
2022-08-11T21:01:56.346Z,1.75
2022-08-11T21:05:01.104Z,1.80
2022-08-11T21:08:08.810Z,1.67
2022-08-11T21:11:27.582Z,1.98
2022-08-11T21:14:31.961Z,1.67
2022-08-11T21:17:44.900Z,1.70
2022-08-11T21:21:04.879Z,1.80
2022-08-11T21:24:12.549Z,2.22
2022-08-11T21:27:24.748Z,1.50
2022-08-11T21:30:28.927Z,1.83
2022-08-11T21:33:32.888Z,1.90
2022-08-11T21:36:39.634Z,2.33
2022-08-11T21:39:45.305Z,1.90
2022-08-11T21:42:52.537Z,1.60
2022-08-11T21:45:58.309Z,1.83
2022-08-11T21:49:03.455Z,2.17
2022-08-11T21:52:07.793Z,2.00
2022-08-11T21:55:12.759Z,2.10
2022-08-11T21:58:18.418Z,2.10
2022-08-11T22:01:22.309Z,2.05
2022-08-11T22:04:26.940Z,2.63
2022-08-11T22:07:31.167Z,2.25
2022-08-11T22:10:42.169Z,2.50
2022-08-11T22:14:05.801Z,2.55
2022-08-11T22:17:10.983Z,2.53
2022-08-11T22:20:17.394Z,2.17
2022-08-11T22:23:22.406Z,2.28
2022-08-11T22:26:26.788Z,2.60
2022-08-11T22:29:49.988Z,2.30
2022-08-11T22:32:55.532Z,2.30
2022-08-11T22:36:00.644Z,2.20
2022-08-11T22:39:06.836Z,1.98
2022-08-11T22:42:10.946Z,2.17
2022-08-11T22:45:14.768Z,2.10
2022-08-11T22:48:20.870Z,2.15
2022-08-11T22:51:25.521Z,2.65
2022-08-11T22:54:30.729Z,2.28
2022-08-11T22:57:34.888Z,2.30
2022-08-11T23:00:38.962Z,2.10
2022-08-11T23:03:44.719Z,2.58
2022-08-11T23:06:49.224Z,2.25
2022-08-11T23:09:53.470Z,2.55
2022-08-11T23:12:58.806Z,2.15
2022-08-11T23:16:03.062Z,1.90
2022-08-11T23:19:08.811Z,2.20
2022-08-11T23:22:13.713Z,1.90
2022-08-11T23:25:18.691Z,2.03
2022-08-11T23:28:24.613Z,1.83
2022-08-11T23:31:51.074Z,1.92
2022-08-11T23:35:04.440Z,1.83
2022-08-11T23:38:22.814Z,1.75
2022-08-11T23:41:26.471Z,1.98
2022-08-11T23:44:31.155Z,2.20
2022-08-11T23:47:50.057Z,2.03
2022-08-11T23:50:55.568Z,2.20
2022-08-11T23:54:00.764Z,1.60
2022-08-11T23:57:11.761Z,2.03
